createdAt,value
2023-06-17T00:00:43.166Z,96855.50
2023-06-17T00:03:10.294Z,96858.53
2023-06-17T00:05:37.426Z,96854.63
2023-06-17T00:08:04.047Z,96854.22
2023-06-17T00:10:30.664Z,96848.59
2023-06-17T00:12:59.589Z,96853.91
2023-06-17T00:15:26.448Z,96842.44
2023-06-17T00:17:53.359Z,96849.13
2023-06-17T00:20:21.572Z,96843.06
2023-06-17T00:22:48.492Z,96837.16
2023-06-17T00:25:15.182Z,96839.56
2023-06-17T00:27:42.876Z,96837.56
2023-06-17T00:30:09.769Z,96838.63
2023-06-17T00:32:37.323Z,96838.44
2023-06-17T00:35:07.104Z,96841.31
2023-06-17T00:37:34.060Z,96831.31
2023-06-17T00:40:00.918Z,96831.13
2023-06-17T00:42:27.662Z,96829.84
2023-06-17T00:44:54.381Z,96820.91
2023-06-17T00:47:21.137Z,96828.66
2023-06-17T00:49:48.409Z,96834.19
2023-06-17T00:52:35.667Z,96827.22
2023-06-17T00:55:03.600Z,96829.91
2023-06-17T00:57:30.466Z,96826.25
2023-06-17T00:59:58.203Z,96818.13
2023-06-17T01:02:27.231Z,96817.66
2023-06-17T01:04:55.730Z,96825.84
2023-06-17T01:07:25.348Z,96820.16
2023-06-17T01:10:02.041Z,96820.16
2023-06-17T01:12:29.508Z,96813.38
2023-06-17T01:14:58.544Z,96811.63
2023-06-17T01:17:27.536Z,96796.94
2023-06-17T01:19:57.829Z,96811.41
2023-06-17T01:22:26.280Z,96794.06
2023-06-17T01:24:53.314Z,96810.50
2023-06-17T01:27:24.548Z,96810.03
2023-06-17T01:29:51.666Z,96807.97
2023-06-17T01:32:18.390Z,96795.50
2023-06-17T01:34:56.188Z,96791.06
2023-06-17T01:37:39.605Z,96806.91
2023-06-17T01:40:09.923Z,96799.09
2023-06-17T01:42:39.462Z,96805.06
2023-06-17T01:45:07.675Z,96803.59
2023-06-17T01:47:36.337Z,96810.03
2023-06-17T01:50:05.901Z,96801.94
2023-06-17T01:52:33.359Z,96808.41
2023-06-17T01:55:01.090Z,96810.78
2023-06-17T01:57:28.139Z,96792.44
2023-06-17T01:59:55.640Z,96804.94
2023-06-17T02:02:22.924Z,96804.03
2023-06-17T02:04:50.110Z,96800.91
2023-06-17T02:07:19.801Z,96806.56
2023-06-17T02:09:47.097Z,96816.38
2023-06-17T02:12:14.144Z,96807.72
2023-06-17T02:14:40.754Z,96818.13
2023-06-17T02:17:09.748Z,96815.69
2023-06-17T02:19:36.729Z,96822.31
2023-06-17T02:22:03.774Z,96826.03
2023-06-17T02:24:30.640Z,96817.88
2023-06-17T02:26:58.083Z,96827.97
2023-06-17T02:29:26.410Z,96811.31
2023-06-17T02:31:53.319Z,96821.66
2023-06-17T02:34:20.498Z,96818.78
2023-06-17T02:36:47.612Z,96818.47
2023-06-17T02:39:14.395Z,96821.09
2023-06-17T02:41:41.001Z,96816.31
2023-06-17T02:44:07.640Z,96819.47
2023-06-17T02:46:34.410Z,96822.34
2023-06-17T02:49:01.159Z,96814.69
2023-06-17T02:51:29.066Z,96823.38
2023-06-17T02:53:55.948Z,96814.19
2023-06-17T02:56:22.670Z,96813.91
2023-06-17T02:58:49.357Z,96825.03
2023-06-17T03:01:17.716Z,96812.84
2023-06-17T03:03:44.423Z,96827.94
2023-06-17T03:06:11.028Z,96828.22
2023-06-17T03:08:41.327Z,96831.22
2023-06-17T03:11:08.199Z,96831.06
2023-06-17T03:13:34.728Z,96829.31
2023-06-17T03:16:02.474Z,96837.59
2023-06-17T03:18:30.927Z,96830.31
2023-06-17T03:20:57.580Z,96832.00
2023-06-17T03:23:24.684Z,96839.63
2023-06-17T03:25:52.932Z,96841.59
2023-06-17T03:28:19.873Z,96829.31
2023-06-17T03:30:48.554Z,96831.44
2023-06-17T03:33:15.495Z,96830.44
2023-06-17T03:35:42.211Z,96825.97
2023-06-17T03:38:09.297Z,96836.25
2023-06-17T03:40:35.959Z,96832.00
2023-06-17T03:43:02.543Z,96836.72
2023-06-17T03:45:32.233Z,96832.88
2023-06-17T03:47:59.433Z,96824.16
2023-06-17T03:50:26.361Z,96821.22
2023-06-17T03:52:52.969Z,96828.69
2023-06-17T03:55:19.683Z,96817.38
2023-06-17T03:57:46.403Z,96820.16
2023-06-17T04:00:15.029Z,96819.94
2023-06-17T04:02:46.219Z,96825.91
2023-06-17T04:05:13.577Z,96816.16
2023-06-17T04:07:41.187Z,96827.53
2023-06-17T04:10:09.585Z,96832.59
2023-06-17T04:12:42.567Z,96824.16
2023-06-17T04:15:09.641Z,96823.72
2023-06-17T04:17:37.774Z,96822.53
2023-06-17T04:20:13.379Z,96826.28
2023-06-17T04:22:41.270Z,96820.16
2023-06-17T04:25:09.902Z,96822.47
2023-06-17T04:27:37.788Z,96819.25
2023-06-17T04:30:05.598Z,96814.63
2023-06-17T04:32:36.427Z,96821.41
2023-06-17T04:35:07.273Z,96812.88
2023-06-17T04:37:33.995Z,96815.69
2023-06-17T04:40:00.689Z,96815.28
2023-06-17T04:42:27.736Z,96824.88
2023-06-17T04:44:54.289Z,96820.31
2023-06-17T04:47:23.749Z,96827.75
2023-06-17T04:49:52.850Z,96831.31
2023-06-17T04:52:25.837Z,96830.44
2023-06-17T04:54:52.843Z,96830.72
2023-06-17T04:57:19.735Z,96834.19
2023-06-17T04:59:46.577Z,96832.75
2023-06-17T05:02:14.523Z,96820.88
2023-06-17T05:04:41.566Z,96823.31
2023-06-17T05:07:08.209Z,96825.31
2023-06-17T05:09:34.837Z,96820.97
2023-06-17T05:12:01.430Z,96821.06
2023-06-17T05:14:28.009Z,96816.53
2023-06-17T05:16:54.654Z,96823.09
2023-06-17T05:19:21.271Z,96816.16
2023-06-17T05:21:47.928Z,96819.84
2023-06-17T05:24:14.510Z,96829.66
2023-06-17T05:26:41.137Z,96832.03
2023-06-17T05:29:07.674Z,96825.16
2023-06-17T05:31:34.213Z,96831.75
2023-06-17T05:34:00.867Z,96820.72
2023-06-17T05:36:27.437Z,96812.03
2023-06-17T05:38:54.007Z,96823.03
2023-06-17T05:41:20.515Z,96823.53
2023-06-17T05:43:47.544Z,96816.22
2023-06-17T05:46:14.207Z,96825.94
2023-06-17T05:48:40.820Z,96818.97
2023-06-17T05:51:07.572Z,96823.53
2023-06-17T05:53:34.157Z,96825.63
2023-06-17T05:56:00.834Z,96826.81
2023-06-17T05:58:27.413Z,96831.16
2023-06-17T06:00:53.996Z,96825.44
2023-06-17T06:03:21.076Z,96828.78
2023-06-17T06:05:47.585Z,96825.75
2023-06-17T06:08:14.139Z,96834.34
2023-06-17T06:10:41.747Z,96819.69
2023-06-17T06:13:09.840Z,96831.69
2023-06-17T06:15:36.396Z,96825.78
2023-06-17T06:18:02.956Z,96826.63
2023-06-17T06:20:30.190Z,96848.00
2023-06-17T06:22:56.841Z,96842.09
2023-06-17T06:25:23.414Z,96835.16
2023-06-17T06:27:51.698Z,96843.53
2023-06-17T06:30:18.534Z,96834.53
2023-06-17T06:32:45.695Z,96834.38
2023-06-17T06:35:12.334Z,96842.22
2023-06-17T06:37:38.983Z,96836.47
2023-06-17T06:40:06.561Z,96836.75
2023-06-17T06:42:33.189Z,96834.69
2023-06-17T06:44:59.739Z,96834.81
2023-06-17T06:47:26.329Z,96836.66
2023-06-17T06:49:53.008Z,96841.00
2023-06-17T06:52:19.539Z,96831.44
2023-06-17T06:54:46.157Z,96833.72
2023-06-17T06:57:12.895Z,96838.22
2023-06-17T06:59:39.456Z,96833.59
2023-06-17T07:02:06.538Z,96838.94
2023-06-17T07:04:33.154Z,96830.97
2023-06-17T07:06:59.701Z,96828.00
2023-06-17T07:09:26.399Z,96827.22
2023-06-17T07:11:52.944Z,96830.44
2023-06-17T07:14:20.017Z,96834.19
2023-06-17T07:16:46.601Z,96837.09
2023-06-17T07:19:13.222Z,96845.06
2023-06-17T07:21:39.719Z,96841.63
2023-06-17T07:24:06.497Z,96838.28
2023-06-17T07:26:33.406Z,96836.59
2023-06-17T07:29:02.435Z,96834.03
2023-06-17T07:31:32.290Z,96835.78
2023-06-17T07:34:00.076Z,96831.56
2023-06-17T07:36:26.913Z,96833.72
2023-06-17T07:38:54.058Z,96833.47
2023-06-17T07:41:21.776Z,96832.38
2023-06-17T07:43:48.357Z,96832.56
2023-06-17T07:46:16.023Z,96831.19
2023-06-17T07:48:42.535Z,96828.81
2023-06-17T07:51:09.154Z,96831.81
2023-06-17T07:53:35.705Z,96827.81
2023-06-17T07:56:02.358Z,96822.59
2023-06-17T07:58:29.873Z,96821.97
2023-06-17T08:01:06.760Z,96816.25
2023-06-17T08:03:33.361Z,96822.84
2023-06-17T08:05:59.911Z,96820.22
2023-06-17T08:08:26.404Z,96809.63
2023-06-17T08:10:52.945Z,96809.88
2023-06-17T08:13:19.449Z,96808.53
2023-06-17T08:15:46.028Z,96802.63
2023-06-17T08:18:12.729Z,96795.03
2023-06-17T08:20:40.909Z,96795.72
2023-06-17T08:23:08.886Z,96795.56
2023-06-17T08:25:35.571Z,96791.22
2023-06-17T08:28:02.274Z,96784.59
2023-06-17T08:30:28.836Z,96790.34
2023-06-17T08:32:55.589Z,96785.44
2023-06-17T08:35:22.201Z,96779.13
2023-06-17T08:37:48.739Z,96785.25
2023-06-17T08:40:17.008Z,96770.28
2023-06-17T08:42:43.732Z,96783.75
2023-06-17T08:45:10.671Z,96767.22
2023-06-17T08:47:37.647Z,96769.91
2023-06-17T08:50:06.364Z,96771.91
2023-06-17T08:52:34.587Z,96755.03
2023-06-17T08:55:02.972Z,96764.84
2023-06-17T08:57:29.512Z,96747.03
2023-06-17T08:59:56.459Z,96753.56
2023-06-17T09:02:23.789Z,96759.13
2023-06-17T09:04:50.599Z,96765.13
2023-06-17T09:07:17.302Z,96753.34
2023-06-17T09:09:49.564Z,96762.50
2023-06-17T09:12:16.079Z,96759.69
2023-06-17T09:14:45.994Z,96747.91
2023-06-17T09:17:28.734Z,96749.66
2023-06-17T09:19:56.365Z,96750.84
2023-06-17T09:22:27.301Z,96748.34
2023-06-17T09:24:58.841Z,96756.25
2023-06-17T09:27:27.160Z,96753.63
2023-06-17T09:30:14.534Z,96755.03
2023-06-17T09:32:42.704Z,96753.72
2023-06-17T09:35:16.043Z,96749.41
2023-06-17T09:38:02.322Z,96730.00
2023-06-17T09:40:32.805Z,96728.88
2023-06-17T09:43:09.501Z,96740.16
2023-06-17T09:45:50.736Z,96727.41
2023-06-17T09:48:21.725Z,96732.44
2023-06-17T09:50:53.833Z,96732.19
2023-06-17T09:53:21.091Z,96731.47
2023-06-17T09:55:48.102Z,96733.72
2023-06-17T09:58:16.829Z,96730.00
2023-06-17T10:00:46.649Z,96732.00
2023-06-17T10:03:15.460Z,96718.53
2023-06-17T10:05:42.366Z,96709.06
2023-06-17T10:08:09.313Z,96709.78
2023-06-17T10:10:37.329Z,96704.81
2023-06-17T10:13:06.436Z,96707.03
2023-06-17T10:15:33.583Z,96723.25
2023-06-17T10:18:01.796Z,96713.53
2023-06-17T10:20:33.232Z,96721.06
2023-06-17T10:23:03.017Z,96716.47
2023-06-17T10:25:29.657Z,96701.31
2023-06-17T10:27:56.578Z,96708.16
2023-06-17T10:30:27.760Z,96706.97
2023-06-17T10:33:02.594Z,96704.19
2023-06-17T10:35:39.023Z,96706.03
2023-06-17T10:38:05.889Z,96702.91
2023-06-17T10:40:36.932Z,96688.94
2023-06-17T10:43:04.502Z,96680.09
2023-06-17T10:45:53.032Z,96696.63
2023-06-17T10:48:25.823Z,96704.84
2023-06-17T10:50:57.520Z,96700.75
2023-06-17T10:53:29.963Z,96680.91
2023-06-17T10:56:00.462Z,96688.53
2023-06-17T10:58:36.447Z,96695.81
2023-06-17T11:01:07.711Z,96686.63
2023-06-17T11:03:34.911Z,96677.69
2023-06-17T11:06:33.149Z,96677.16
2023-06-17T11:09:17.315Z,96678.47
2023-06-17T11:11:43.827Z,96678.69
2023-06-17T11:14:10.366Z,96670.63
2023-06-17T11:16:36.894Z,96673.75
2023-06-17T11:19:03.461Z,96667.91
2023-06-17T11:21:30.052Z,96675.09
2023-06-17T11:23:56.638Z,96676.28
2023-06-17T11:26:25.366Z,96669.09
2023-06-17T11:28:52.841Z,96671.41
2023-06-17T11:31:21.322Z,96666.31
2023-06-17T11:33:49.135Z,96661.25
2023-06-17T11:36:18.869Z,96659.81
2023-06-17T11:38:46.760Z,96651.59
2023-06-17T11:41:13.416Z,96653.91
2023-06-17T11:43:41.161Z,96657.56
2023-06-17T11:46:08.296Z,96654.38
2023-06-17T11:48:35.743Z,96642.75
2023-06-17T11:51:02.906Z,96638.00
2023-06-17T11:53:37.438Z,96642.97
2023-06-17T11:56:08.310Z,96630.97
2023-06-17T11:58:38.814Z,96648.69
2023-06-17T12:01:06.003Z,96643.63
2023-06-17T12:03:32.722Z,96631.56
2023-06-17T12:06:00.053Z,96638.16
2023-06-17T12:08:56.548Z,96627.66
2023-06-17T12:11:32.722Z,96624.88
2023-06-17T12:14:00.310Z,96626.09
2023-06-17T12:16:35.480Z,96615.31
2023-06-17T12:19:07.347Z,96613.78
2023-06-17T12:21:34.813Z,96624.00
2023-06-17T12:24:04.680Z,96622.56
2023-06-17T12:26:33.070Z,96615.72
2023-06-17T12:29:03.015Z,96613.38
2023-06-17T12:31:32.346Z,96597.56
2023-06-17T12:34:00.955Z,96594.38
2023-06-17T12:36:27.819Z,96611.44
2023-06-17T12:38:54.488Z,96607.81
2023-06-17T12:41:21.054Z,96607.22
2023-06-17T12:46:15.531Z,96601.22
2023-06-17T12:48:45.370Z,96601.88
2023-06-17T12:51:12.938Z,96587.41
2023-06-17T12:53:40.179Z,96594.09
2023-06-17T12:56:06.765Z,96598.28
2023-06-17T12:58:34.565Z,96597.31
2023-06-17T13:01:02.570Z,96577.56
2023-06-17T13:03:29.343Z,96585.81
2023-06-17T13:05:55.991Z,96601.75
2023-06-17T13:08:22.571Z,96599.66
2023-06-17T13:10:49.325Z,96601.25
2023-06-17T13:13:16.867Z,96587.53
2023-06-17T13:15:43.608Z,96586.00
2023-06-17T13:18:10.243Z,96594.72
2023-06-17T13:20:36.908Z,96590.72
2023-06-17T13:23:04.118Z,96574.91
2023-06-17T13:25:30.689Z,96563.03
2023-06-17T13:27:57.613Z,96580.16
2023-06-17T13:30:25.796Z,96578.59
2023-06-17T13:32:52.815Z,96564.72
2023-06-17T13:35:19.629Z,96553.44
2023-06-17T13:37:47.512Z,96562.38
2023-06-17T13:40:14.146Z,96568.34
2023-06-17T13:42:40.705Z,96559.19
2023-06-17T13:45:08.203Z,96550.16
2023-06-17T13:47:34.916Z,96554.47
2023-06-17T13:50:01.716Z,96563.75
2023-06-17T13:52:28.573Z,96564.00
2023-06-17T13:54:55.311Z,96557.47
2023-06-17T13:57:21.860Z,96555.94
2023-06-17T13:59:48.539Z,96570.78
2023-06-17T14:02:15.239Z,96559.53
2023-06-17T14:04:43.350Z,96573.56
2023-06-17T14:07:10.327Z,96560.59
2023-06-17T14:09:37.298Z,96555.53
2023-06-17T14:12:04.208Z,96556.66
2023-06-17T14:14:31.242Z,96565.78
2023-06-17T14:16:58.658Z,96564.47
2023-06-17T14:19:25.199Z,96567.53
2023-06-17T14:22:03.271Z,96562.56
2023-06-17T14:24:29.875Z,96544.31
2023-06-17T14:27:14.651Z,96550.69
2023-06-17T14:29:41.217Z,96571.06
2023-06-17T14:32:08.257Z,96541.97
2023-06-17T14:34:35.011Z,96544.88
2023-06-17T14:37:01.574Z,96549.38
2023-06-17T14:39:28.103Z,96541.34
2023-06-17T14:41:54.684Z,96534.97
2023-06-17T14:44:21.435Z,96540.13
2023-06-17T14:46:48.190Z,96529.88
2023-06-17T14:49:14.729Z,96530.78
2023-06-17T14:51:43.113Z,96541.63
2023-06-17T14:54:09.625Z,96540.66
2023-06-17T14:56:37.502Z,96540.72
2023-06-17T14:59:04.985Z,96532.88
2023-06-17T15:01:35.909Z,96532.13
2023-06-17T15:04:07.755Z,96543.53
2023-06-17T15:06:35.779Z,96538.72
2023-06-17T15:09:27.645Z,96553.59
2023-06-17T15:11:58.481Z,96539.22
2023-06-17T15:14:33.465Z,96518.91
2023-06-17T15:17:01.108Z,96531.63
2023-06-17T15:19:27.723Z,96530.47
2023-06-17T15:21:54.570Z,96535.75
2023-06-17T15:24:21.197Z,96521.31
2023-06-17T15:26:47.833Z,96530.53
2023-06-17T15:29:15.022Z,96524.19
2023-06-17T15:31:41.771Z,96515.44
2023-06-17T15:34:08.419Z,96517.91
2023-06-17T15:36:35.398Z,96515.81
2023-06-17T15:39:24.932Z,96513.31
2023-06-17T15:41:53.390Z,96511.09
2023-06-17T15:44:21.355Z,96516.69
2023-06-17T15:46:48.392Z,96520.31
2023-06-17T15:49:15.760Z,96514.47
2023-06-17T15:51:42.707Z,96517.50
2023-06-17T15:54:09.309Z,96523.19
2023-06-17T15:56:37.302Z,96514.28
2023-06-17T15:59:05.364Z,96519.31
2023-06-17T16:01:32.101Z,96525.03
2023-06-17T16:03:58.720Z,96521.69
2023-06-17T16:06:26.779Z,96523.63
2023-06-17T16:08:54.535Z,96514.75
2023-06-17T16:11:21.380Z,96528.56
2023-06-17T16:13:48.550Z,96527.31
2023-06-17T16:16:15.124Z,96524.28
2023-06-17T16:18:41.737Z,96529.75
2023-06-17T16:21:08.315Z,96529.13
2023-06-17T16:23:34.966Z,96525.03
2023-06-17T16:26:02.222Z,96524.16
2023-06-17T16:28:28.790Z,96528.63
2023-06-17T16:30:55.540Z,96534.31
2023-06-17T16:33:22.064Z,96529.69
2023-06-17T16:35:48.712Z,96532.25
2023-06-17T16:38:15.719Z,96527.44
2023-06-17T16:40:42.309Z,96524.44
2023-06-17T16:43:08.843Z,96525.84
2023-06-17T16:45:35.504Z,96530.19
2023-06-17T16:48:02.135Z,96530.69
2023-06-17T16:50:28.806Z,96531.00
2023-06-17T16:52:55.377Z,96524.44
2023-06-17T16:55:21.926Z,96524.56
2023-06-17T16:57:48.524Z,96542.00
2023-06-17T17:00:15.130Z,96541.75
2023-06-17T17:02:41.813Z,96546.31
2023-06-17T17:05:09.553Z,96545.75
2023-06-17T17:07:36.099Z,96547.44
2023-06-17T17:10:02.960Z,96553.47
2023-06-17T17:12:29.585Z,96550.78
2023-06-17T17:14:56.727Z,96549.81
2023-06-17T17:17:23.446Z,96547.44
2023-06-17T17:19:50.096Z,96537.13
2023-06-17T17:22:16.769Z,96552.16
2023-06-17T17:24:44.346Z,96544.31
2023-06-17T17:27:11.417Z,96556.28
2023-06-17T17:29:38.003Z,96554.13
2023-06-17T17:32:05.584Z,96542.72
2023-06-17T17:34:32.260Z,96550.69
2023-06-17T17:36:58.840Z,96544.91
2023-06-17T17:39:25.478Z,96545.72
2023-06-17T17:41:52.021Z,96556.66
2023-06-17T17:44:18.540Z,96551.00
2023-06-17T17:46:45.096Z,96554.38
2023-06-17T17:49:11.662Z,96557.66
2023-06-17T17:51:38.252Z,96561.28
2023-06-17T17:54:04.802Z,96555.19
2023-06-17T17:56:32.346Z,96570.22
2023-06-17T17:58:59.137Z,96574.03
2023-06-17T18:01:26.328Z,96572.16
2023-06-17T18:03:53.329Z,96566.88
2023-06-17T18:06:19.959Z,96575.28
2023-06-17T18:08:46.756Z,96572.31
2023-06-17T18:11:13.527Z,96579.41
2023-06-17T18:13:40.087Z,96584.63
2023-06-17T18:16:06.850Z,96576.63
2023-06-17T18:18:33.452Z,96581.22
2023-06-17T18:20:59.959Z,96585.34
2023-06-17T18:23:26.982Z,96573.00
2023-06-17T18:25:53.619Z,96585.91
2023-06-17T18:28:20.209Z,96586.78
2023-06-17T18:30:46.798Z,96580.09
2023-06-17T18:33:13.368Z,96584.69
2023-06-17T18:35:40.072Z,96593.03
2023-06-17T18:38:08.534Z,96593.59
2023-06-17T18:40:36.113Z,96575.94
2023-06-17T18:43:03.692Z,96577.53
2023-06-17T18:45:30.689Z,96593.38
2023-06-17T18:47:57.238Z,96594.19
2023-06-17T18:50:24.018Z,96584.00
2023-06-17T18:52:53.502Z,96589.91
2023-06-17T18:55:20.124Z,96603.31
2023-06-17T18:57:46.792Z,96602.78
2023-06-17T19:00:13.601Z,96598.97
2023-06-17T19:02:40.214Z,96612.38
2023-06-17T19:05:07.297Z,96610.72
2023-06-17T19:07:34.127Z,96605.59
2023-06-17T19:10:01.189Z,96612.84
2023-06-17T19:12:31.806Z,96618.94
2023-06-17T19:14:59.028Z,96625.31
2023-06-17T19:17:26.936Z,96619.91
2023-06-17T19:19:53.762Z,96621.47
2023-06-17T19:22:20.547Z,96623.25
2023-06-17T19:24:47.562Z,96630.97
2023-06-17T19:27:14.990Z,96628.44
2023-06-17T19:29:43.830Z,96633.41
2023-06-17T19:32:10.344Z,96629.84
2023-06-17T19:34:37.365Z,96638.28
2023-06-17T19:37:04.674Z,96633.69
2023-06-17T19:39:31.369Z,96628.53
2023-06-17T19:41:57.951Z,96630.81
2023-06-17T19:44:24.615Z,96641.13
2023-06-17T19:46:51.282Z,96630.75
2023-06-17T19:49:17.858Z,96643.88
2023-06-17T19:51:44.470Z,96647.81
2023-06-17T19:54:11.107Z,96645.56
2023-06-17T19:56:37.632Z,96652.63
2023-06-17T19:59:04.416Z,96658.81
2023-06-17T20:01:31.690Z,96660.91
2023-06-17T20:03:58.257Z,96655.41
2023-06-17T20:06:26.652Z,96664.78
2023-06-17T20:08:53.612Z,96669.50
2023-06-17T20:11:20.570Z,96662.06
2023-06-17T20:13:48.092Z,96667.16
2023-06-17T20:16:14.768Z,96664.66
2023-06-17T20:18:41.358Z,96653.22
2023-06-17T20:21:07.903Z,96665.59
2023-06-17T20:23:34.644Z,96668.75
2023-06-17T20:26:01.411Z,96671.72
2023-06-17T20:28:29.350Z,96666.72
2023-06-17T20:30:58.049Z,96661.56
2023-06-17T20:33:24.595Z,96666.09
2023-06-17T20:35:54.979Z,96676.19
2023-06-17T20:38:21.776Z,96676.63
2023-06-17T20:40:48.520Z,96672.28
2023-06-17T20:43:16.005Z,96652.38
2023-06-17T20:45:42.842Z,96671.03
2023-06-17T20:48:09.509Z,96679.50
2023-06-17T20:50:36.159Z,96678.72
2023-06-17T20:53:02.950Z,96680.91
2023-06-17T20:55:29.898Z,96680.22
2023-06-17T20:57:57.085Z,96672.13
2023-06-17T21:00:24.152Z,96672.94
2023-06-17T21:02:51.463Z,96681.16
2023-06-17T21:05:18.398Z,96679.00
2023-06-17T21:07:46.406Z,96679.00
2023-06-17T21:10:13.567Z,96679.34
2023-06-17T21:12:40.204Z,96682.13
2023-06-17T21:15:07.935Z,96688.59
2023-06-17T21:17:34.819Z,96689.28
2023-06-17T21:20:01.525Z,96688.38
2023-06-17T21:22:28.176Z,96678.94
2023-06-17T21:24:54.724Z,96683.31
2023-06-17T21:27:21.434Z,96681.19
2023-06-17T21:29:48.060Z,96680.19
2023-06-17T21:32:14.756Z,96692.16
2023-06-17T21:34:41.360Z,96690.31
2023-06-17T21:37:09.095Z,96685.56
2023-06-17T21:39:35.959Z,96688.84
2023-06-17T21:42:02.531Z,96686.13
2023-06-17T21:44:29.295Z,96691.72
2023-06-17T21:46:56.274Z,96691.16
2023-06-17T21:49:23.775Z,96690.19
2023-06-17T21:51:51.469Z,96691.50
2023-06-17T21:54:17.996Z,96691.50
2023-06-17T21:56:44.998Z,96694.81
2023-06-17T21:59:11.612Z,96694.81
2023-06-17T22:01:38.118Z,96698.88
2023-06-17T22:04:05.037Z,96691.81
2023-06-17T22:06:32.306Z,96697.41
2023-06-17T22:08:58.951Z,96690.06
2023-06-17T22:11:25.569Z,96683.94
2023-06-17T22:13:52.188Z,96687.16
2023-06-17T22:16:19.202Z,96685.78
2023-06-17T22:18:46.144Z,96686.94
2023-06-17T22:21:12.969Z,96681.00
2023-06-17T22:23:39.661Z,96685.97
2023-06-17T22:26:06.262Z,96683.59
2023-06-17T22:28:32.790Z,96689.25
2023-06-17T22:30:59.450Z,96692.03
2023-06-17T22:33:26.185Z,96678.19
2023-06-17T22:35:53.516Z,96688.81
2023-06-17T22:38:20.381Z,96692.16
2023-06-17T22:40:47.114Z,96689.31
2023-06-17T22:43:14.716Z,96683.13
2023-06-17T22:45:41.285Z,96682.88
2023-06-17T22:48:07.961Z,96678.66
2023-06-17T22:50:36.044Z,96679.06
2023-06-17T22:53:02.591Z,96691.13
2023-06-17T22:55:29.077Z,96681.94
2023-06-17T22:57:55.576Z,96679.72
2023-06-17T23:00:22.290Z,96676.81
2023-06-17T23:02:49.189Z,96677.53
2023-06-17T23:05:16.149Z,96690.88
2023-06-17T23:07:42.791Z,96689.00
2023-06-17T23:10:09.455Z,96681.63
2023-06-17T23:12:36.066Z,96690.00
2023-06-17T23:15:03.648Z,96693.88
2023-06-17T23:17:30.216Z,96699.47
2023-06-17T23:20:01.117Z,96703.75
2023-06-17T23:22:28.152Z,96696.69
2023-06-17T23:24:54.968Z,96697.56
2023-06-17T23:27:27.885Z,96705.72
2023-06-17T23:29:56.138Z,96699.41
2023-06-17T23:32:24.149Z,96702.28
2023-06-17T23:34:53.218Z,96691.44
2023-06-17T23:37:21.322Z,96692.81
2023-06-17T23:39:48.339Z,96696.88
2023-06-17T23:42:14.878Z,96700.59
2023-06-17T23:44:41.401Z,96699.56
2023-06-17T23:47:08.523Z,96690.41
2023-06-17T23:49:39.216Z,96695.50
2023-06-17T23:52:07.214Z,96687.59
2023-06-17T23:54:34.193Z,96687.66
2023-06-17T23:57:00.923Z,96689.47
2023-06-17T23:59:27.491Z,96687.84
